Time;durP1;ratioP1;P1;durP2;ratioP2;P2;SDS_P1;SDS_P2;PMS_P1;PMS_P2;Temp;Humidity;BMP_temperature;BMP_pressure;BME280_temperature;BME280_humidity;BME280_pressure;Samples;Min_cycle;Max_cycle;Signal;HPM_P1;HPM_P2
2020/12/07 00:01:48;;;;;;;21.58;10.95;;;;;;;2.24;100.00;100291.19;5092560;28;20369;-70
2020/12/07 00:04:14;;;;;;;19.98;10.63;;;;;;;2.24;100.00;100293.88;5092519;28;20133;-69
2020/12/07 00:06:40;;;;;;;19.70;10.73;;;;;;;2.23;100.00;100294.91;5092731;28;20085;-69
2020/12/07 00:09:06;;;;;;;20.42;10.20;;;;;;;2.23;100.00;100294.91;5092629;28;20501;-69
2020/12/07 00:11:32;;;;;;;19.02;10.68;;;;;;;2.22;100.00;100293.25;5092433;28;20749;-68
2020/12/07 00:13:58;;;;;;;19.00;12.43;;;;;;;2.21;100.00;100291.59;5092237;28;20047;-67
2020/12/07 00:16:24;;;;;;;22.83;13.05;;;;;;;2.20;100.00;100289.94;5092257;28;20039;-67
2020/12/07 00:18:49;;;;;;;22.85;13.48;;;;;;;2.20;100.00;100284.53;5092510;28;20374;-67
2020/12/07 00:21:15;;;;;;;23.40;12.32;;;;;;;2.19;100.00;100280.19;5092299;28;20074;-69
2020/12/07 00:23:41;;;;;;;23.95;12.18;;;;;;;2.18;100.00;100278.53;5092162;28;20130;-69
2020/12/07 00:26:07;;;;;;;20.52;12.25;;;;;;;2.17;100.00;100274.16;5092180;28;20067;-69
2020/12/07 00:28:34;;;;;;;21.60;12.38;;;;;;;2.15;100.00;100268.16;5091771;28;20505;-69
2020/12/07 00:31:02;;;;;;;19.48;12.05;;;;;;;2.15;100.00;100265.47;5091952;28;20040;-71
2020/12/07 00:33:28;;;;;;;18.48;11.45;;;;;;;2.14;100.00;100258.41;5091991;28;20035;-67
2020/12/07 00:35:53;;;;;;;21.23;12.35;;;;;;;2.14;100.00;100261.13;5091166;28;20036;-69
2020/12/07 00:38:19;;;;;;;17.95;10.60;;;;;;;2.14;100.00;100255.72;5091843;28;20367;-69
2020/12/07 00:40:44;;;;;;;29.17;12.20;;;;;;;2.14;100.00;100247.66;5091874;28;20318;-68
2020/12/07 00:43:10;;;;;;;18.73;9.82;;;;;;;2.13;100.00;100251.38;5090236;28;20040;-70
2020/12/07 00:45:36;;;;;;;18.88;10.60;;;;;;;2.11;100.00;100241.63;5091764;28;20519;-68
2020/12/07 00:48:02;;;;;;;19.98;11.88;;;;;;;2.10;100.00;100239.97;5091541;28;20161;-69
2020/12/07 00:50:27;;;;;;;18.95;11.55;;;;;;;2.08;100.00;100231.25;5091630;28;20371;-69
2020/12/07 00:52:53;;;;;;;22.17;13.07;;;;;;;2.08;100.00;100233.97;5091602;28;20474;-66
2020/12/07 00:55:18;;;;;;;24.50;13.70;;;;;;;2.09;100.00;100224.84;5091673;28;20474;-68
2020/12/07 00:57:44;;;;;;;28.27;14.80;;;;;;;2.09;100.00;100230.22;5091621;28;20127;-70
2020/12/07 01:00:10;;;;;;;24.10;13.55;;;;;;;2.07;100.00;100218.81;5091609;28;20108;-67
2020/12/07 01:02:35;;;;;;;20.50;14.05;;;;;;;2.06;100.00;100225.22;5091494;28;20217;-66
2020/12/07 01:05:01;;;;;;;23.85;14.40;;;;;;;2.04;100.00;100223.75;5091407;28;20040;-71
2020/12/07 01:07:27;;;;;;;30.90;18.13;;;;;;;2.01;100.00;100222.31;5091288;28;20048;-67
2020/12/07 01:09:52;;;;;;;33.00;20.27;;;;;;;1.99;100.00;100210.91;5091490;28;20032;-66
2020/12/07 01:12:18;;;;;;;33.70;20.00;;;;;;;2.00;100.00;100204.50;5090120;28;20434;-67
2020/12/07 01:14:45;;;;;;;37.83;20.73;;;;;;;1.98;100.00;100208.44;5091422;28;20097;-66
2020/12/07 01:17:11;;;;;;;32.28;20.60;;;;;;;1.95;100.00;100201.59;5091222;28;20111;-68
2020/12/07 01:19:37;;;;;;;35.83;20.42;;;;;;;1.93;100.00;100194.75;5091282;28;20119;-68
2020/12/07 01:22:03;;;;;;;38.38;21.85;;;;;;;1.91;100.00;100200.34;5091305;28;20054;-69
2020/12/07 01:24:28;;;;;;;34.20;22.17;;;;;;;1.90;100.00;100192.44;5091166;28;20501;-67
2020/12/07 01:26:54;;;;;;;35.55;21.70;;;;;;;1.88;100.00;100187.25;5091154;28;20448;-70
2020/12/07 01:29:19;;;;;;;40.13;21.50;;;;;;;1.86;100.00;100192.00;5091208;28;20052;-66
2020/12/07 01:31:45;;;;;;;36.28;22.48;;;;;;;1.85;100.00;100184.97;5091231;28;20059;-70
2020/12/07 01:34:10;;;;;;;37.60;22.25;;;;;;;1.86;100.00;100185.78;5091109;28;20062;-68
2020/12/07 01:36:36;;;;;;;38.28;23.38;;;;;;;1.83;100.00;100187.03;5091100;28;20098;-68
2020/12/07 01:39:02;;;;;;;40.50;23.60;;;;;;;1.83;100.00;100181.66;5091042;28;20039;-67
2020/12/07 01:41:27;;;;;;;39.00;22.23;;;;;;;1.81;100.00;100183.72;5089734;28;20604;-70
2020/12/07 01:43:53;;;;;;;37.10;22.58;;;;;;;1.81;100.00;100178.34;5089701;28;20040;-68
2020/12/07 01:46:22;;;;;;;37.28;22.45;;;;;;;1.78;100.00;100170.66;5092168;28;20474;-71
2020/12/07 01:48:49;;;;;;;38.83;23.40;;;;;;;1.77;100.00;100183.28;5095074;28;20042;-68
2020/12/07 01:51:16;;;;;;;37.95;22.20;;;;;;;1.78;100.00;100178.75;5095103;28;20452;-69
2020/12/07 01:53:43;;;;;;;34.58;22.08;;;;;;;1.76;100.00;100165.47;5094950;28;20435;-71
2020/12/07 01:56:12;;;;;;;35.70;22.35;;;;;;;1.75;100.00;100173.75;5093712;28;20397;-69
2020/12/07 01:58:39;;;;;;;35.92;22.45;;;;;;;1.72;100.00;100174.13;5094869;28;20377;-65
2020/12/07 02:01:04;;;;;;;37.17;22.60;;;;;;;1.70;100.00;100165.44;5095030;28;20425;-68
2020/12/07 02:03:30;;;;;;;36.00;23.05;;;;;;;1.68;100.00;100156.75;5093637;28;20066;-68
2020/12/07 02:05:56;;;;;;;38.83;22.65;;;;;;;1.66;100.00;100161.50;5094906;28;20094;-68
2020/12/07 02:08:22;;;;;;;34.45;22.65;;;;;;;1.63;100.00;100151.97;5094588;28;20453;-68
2020/12/07 02:10:48;;;;;;;38.50;22.58;;;;;;;1.62;100.00;100141.41;5094605;28;20043;-69
2020/12/07 02:13:14;;;;;;;35.28;21.48;;;;;;;1.62;100.00;100146.78;5094657;28;20032;-69
2020/12/07 02:15:40;;;;;;;41.13;24.33;;;;;;;1.60;100.00;100140.78;5094667;28;20036;-66
2020/12/07 02:18:07;;;;;;;42.45;25.00;;;;;;;1.57;100.00;100138.50;5094668;28;20035;-70
2020/12/07 02:20:33;;;;;;;44.80;27.35;;;;;;;1.56;100.00;100136.81;5094562;28;20065;-68
2020/12/07 02:22:59;;;;;;;41.97;25.48;;;;;;;1.52;100.00;100131.84;5094558;28;20036;-66
2020/12/07 02:25:25;;;;;;;40.83;24.42;;;;;;;1.51;100.00;100135.56;5094409;28;20478;-67
2020/12/07 02:27:52;;;;;;;44.15;26.13;;;;;;;1.51;100.00;100134.72;5094137;28;20047;-66
2020/12/07 02:30:20;;;;;;;44.97;25.48;;;;;;;1.50;100.00;100127.69;5094438;28;20111;-67
2020/12/07 02:32:46;;;;;;;40.67;23.42;;;;;;;1.48;100.00;100125.19;5094602;28;20489;-68
2020/12/07 02:35:13;;;;;;;42.05;24.63;;;;;;;1.46;100.00;100116.50;5093051;28;20044;-65
2020/12/07 02:37:40;;;;;;;42.45;24.02;;;;;;;1.46;100.00;100119.19;5094092;28;20040;-69
2020/12/07 02:40:05;;;;;;;42.10;25.38;;;;;;;1.44;100.00;100113.19;5094198;28;20075;-70
2020/12/07 02:42:32;;;;;;;39.90;24.08;;;;;;;1.44;100.00;100112.34;5094023;28;20067;-66
2020/12/07 02:45:00;;;;;;;40.17;23.88;;;;;;;1.42;100.00;100104.47;5093962;28;20031;-70
2020/12/07 02:47:26;;;;;;;37.03;23.98;;;;;;;1.42;100.00;100099.09;5093880;28;20440;-67
2020/12/07 02:49:55;;;;;;;45.05;25.02;;;;;;;1.42;100.00;100093.72;5093862;28;20032;-71
2020/12/07 02:52:23;;;;;;;38.22;22.83;;;;;;;1.43;100.00;100100.75;5093876;28;20051;-70
2020/12/07 02:54:53;;;;;;;35.53;22.65;;;;;;;1.44;100.00;100094.34;5093939;28;20063;-66
2020/12/07 02:57:19;;;;;;;32.45;22.08;;;;;;;1.43;100.00;100090.00;5093432;28;20044;-66
2020/12/07 02:59:45;;;;;;;39.17;22.95;;;;;;;1.43;100.00;100095.38;5093281;28;20512;-67
2020/12/07 03:02:11;;;;;;;35.05;22.52;;;;;;;1.43;100.00;100084.63;5093678;28;20036;-65
2020/12/07 03:04:37;;;;;;;39.70;23.75;;;;;;;1.44;100.00;100088.97;5093696;28;20139;-70
2020/12/07 03:07:02;;;;;;;35.92;22.75;;;;;;;1.45;100.00;100085.25;5093584;28;20101;-65
2020/12/07 03:09:28;;;;;;;36.95;21.40;;;;;;;1.45;100.00;100085.25;5093761;28;20040;-69
2020/12/07 03:11:53;;;;;;;38.35;21.40;;;;;;;1.43;100.00;100073.84;5093682;28;20123;-65
2020/12/07 03:14:19;;;;;;;36.33;21.98;;;;;;;1.42;100.00;100072.19;5093547;28;20032;-68
2020/12/07 03:16:45;;;;;;;37.90;22.02;;;;;;;1.42;100.00;100072.19;5093444;28;20039;-66
2020/12/07 03:19:11;;;;;;;33.17;20.33;;;;;;;1.42;100.00;100068.69;5093439;28;20043;-66
2020/12/07 03:21:37;;;;;;;34.50;19.83;;;;;;;1.41;100.00;100070.53;5093409;28;20032;-68
2020/12/07 03:24:05;;;;;;;34.67;23.35;;;;;;;1.38;100.00;100065.53;5093217;28;20036;-68
2020/12/07 03:26:34;;;;;;;35.45;20.83;;;;;;;1.37;100.00;100053.13;5093316;28;20047;-66
2020/12/07 03:29:04;;;;;;;34.78;21.50;;;;;;;1.36;100.00;100056.84;5093194;28;20298;-67
2020/12/07 03:31:35;;;;;;;39.05;21.40;;;;;;;1.35;100.00;100044.44;5093251;28;20405;-66
2020/12/07 03:34:01;;;;;;;34.65;21.10;;;;;;;1.36;100.00;100040.69;5093510;28;20477;-68
2020/12/07 03:36:27;;;;;;;36.53;21.77;;;;;;;1.35;100.00;100044.44;5091897;28;20442;-67
2020/12/07 03:38:53;;;;;;;35.30;20.67;;;;;;;1.34;100.00;100034.69;5093047;28;20072;-66
2020/12/07 03:41:18;;;;;;;32.67;20.80;;;;;;;1.34;100.00;100037.38;5093149;28;20047;-67
2020/12/07 03:43:44;;;;;;;32.38;19.73;;;;;;;1.36;100.00;100029.94;5092897;28;20046;-69
2020/12/07 03:46:10;;;;;;;35.28;19.42;;;;;;;1.37;100.00;100034.28;5093077;28;20040;-67
2020/12/07 03:48:36;;;;;;;31.48;20.50;;;;;;;1.37;100.00;100023.53;5092721;28;20093;-70
2020/12/07 03:51:02;;;;;;;32.45;19.42;;;;;;;1.40;100.00;100030.38;5092768;28;20119;-67
2020/12/07 03:53:33;;;;;;;34.50;19.10;;;;;;;1.40;100.00;100031.22;5092711;28;20436;-67
2020/12/07 03:56:00;;;;;;;31.48;17.42;;;;;;;1.41;100.00;100032.88;5092778;28;20067;-68
2020/12/07 03:58:26;;;;;;;26.80;15.70;;;;;;;1.41;100.00;100027.50;5093009;28;20089;-66
2020/12/07 04:00:51;;;;;;;34.28;17.10;;;;;;;1.40;100.00;100028.53;5092586;28;20363;-67
2020/12/07 04:03:17;;;;;;;27.27;16.20;;;;;;;1.40;100.00;100019.63;5092417;28;20077;-68
2020/12/07 04:05:47;;;;;;;31.08;16.35;;;;;;;1.40;100.00;100015.06;5092489;28;20040;-67
2020/12/07 04:08:13;;;;;;;26.00;15.95;;;;;;;1.41;100.00;100010.53;5092389;28;20047;-66
2020/12/07 04:10:39;;;;;;;28.38;17.25;;;;;;;1.40;100.00;99998.09;5092681;28;20043;-69
2020/12/07 04:13:05;;;;;;;27.45;16.60;;;;;;;1.39;100.00;99986.53;5092265;28;20039;-69
2020/12/07 04:15:31;;;;;;;26.23;16.48;;;;;;;1.41;100.00;99995.22;5092434;28;20043;-67
2020/12/07 04:17:57;;;;;;;26.88;16.27;;;;;;;1.43;100.00;100003.91;5092247;28;20039;-70
2020/12/07 04:20:22;;;;;;;24.75;15.90;;;;;;;1.47;100.00;100005.16;5092304;28;20089;-67
2020/12/07 04:22:48;;;;;;;24.77;15.43;;;;;;;1.49;100.00;99995.00;5092105;28;20059;-66
2020/12/07 04:25:13;;;;;;;26.73;15.13;;;;;;;1.55;100.00;99997.91;5092181;28;20573;-65
2020/12/07 04:27:39;;;;;;;19.27;11.10;;;;;;;1.62;100.00;99996.06;5091896;28;20047;-66
2020/12/07 04:30:05;;;;;;;16.80;9.43;;;;;;;1.71;100.00;99992.13;5091665;28;20051;-62
2020/12/07 04:32:31;;;;;;;17.63;9.85;;;;;;;1.80;100.00;99989.06;5091922;28;20126;-64
2020/12/07 04:34:57;;;;;;;14.25;8.55;;;;;;;1.87;100.00;99983.66;5092051;28;20093;-64
2020/12/07 04:37:22;;;;;;;17.70;8.38;;;;;;;1.94;100.00;99983.69;5092003;28;20044;-67
2020/12/07 04:39:48;;;;;;;14.52;8.98;;;;;;;1.97;100.00;99970.63;5090615;28;20501;-63
2020/12/07 04:42:15;;;;;;;15.13;7.70;;;;;;;1.99;100.00;99973.94;5091701;28;20031;-63
2020/12/07 04:44:41;;;;;;;21.50;9.35;;;;;;;2.02;100.00;99965.44;5090543;28;20036;-65
2020/12/07 04:47:08;;;;;;;20.25;8.80;;;;;;;2.05;100.00;99967.72;5091681;28;20044;-64
2020/12/07 04:49:35;;;;;;;18.98;10.57;;;;;;;2.09;100.00;99963.59;5091917;28;20481;-63
2020/12/07 04:52:02;;;;;;;19.85;10.68;;;;;;;2.13;100.00;99960.47;5091742;28;20512;-65
2020/12/07 04:54:28;;;;;;;18.00;10.52;;;;;;;2.13;100.00;99961.28;5091602;28;20119;-67
2020/12/07 04:56:57;;;;;;;18.08;10.57;;;;;;;2.15;100.00;99961.91;5091526;28;20061;-65
2020/12/07 04:59:26;;;;;;;20.02;12.02;;;;;;;2.18;100.00;99960.66;5091592;28;20379;-64
2020/12/07 05:01:51;;;;;;;25.13;12.98;;;;;;;2.18;100.00;99958.78;5091490;28;20074;-65
2020/12/07 05:04:17;;;;;;;20.88;11.82;;;;;;;2.17;100.00;99951.75;5091627;28;20071;-66
2020/12/07 05:06:43;;;;;;;21.45;12.90;;;;;;;2.16;100.00;99955.50;5091434;28;20043;-64
2020/12/07 05:09:09;;;;;;;20.23;12.63;;;;;;;2.14;100.00;99948.66;5091426;28;20047;-66
2020/12/07 05:11:39;;;;;;;26.45;12.85;;;;;;;2.14;100.00;99948.66;5091281;28;20489;-63
2020/12/07 05:14:09;;;;;;;22.52;11.55;;;;;;;2.10;100.00;99946.38;5091103;28;20043;-66
2020/12/07 05:16:35;;;;;;;22.90;12.82;;;;;;;2.08;100.00;99945.78;5091217;28;20050;-63
2020/12/07 05:19:01;;;;;;;22.25;12.45;;;;;;;2.06;100.00;99939.72;5091228;28;20561;-64
2020/12/07 05:21:27;;;;;;;21.38;12.88;;;;;;;2.06;100.00;99938.91;5090706;28;20132;-65
2020/12/07 05:23:53;;;;;;;23.00;12.63;;;;;;;2.05;100.00;99931.88;5091083;28;20044;-64
2020/12/07 05:26:21;;;;;;;22.98;12.35;;;;;;;2.03;100.00;99940.16;5091299;28;20443;-66
2020/12/07 05:28:53;;;;;;;24.13;12.02;;;;;;;2.01;100.00;99931.47;5090833;28;20055;-66
2020/12/07 05:31:21;;;;;;;22.13;12.90;;;;;;;2.01;100.00;99936.84;5091077;28;20036;-66
2020/12/07 05:33:49;;;;;;;24.65;13.98;;;;;;;1.99;100.00;99933.53;5090897;28;20085;-69
2020/12/07 05:36:15;;;;;;;26.20;14.73;;;;;;;1.96;100.00;99936.66;5090995;28;20505;-67
2020/12/07 05:38:43;;;;;;;24.63;14.45;;;;;;;1.94;100.00;99929.84;5090973;28;20436;-67
2020/12/07 05:41:12;;;;;;;22.80;14.88;;;;;;;1.89;100.00;99930.44;5090906;28;20028;-66
2020/12/07 05:43:39;;;;;;;20.65;13.85;;;;;;;1.84;100.00;99935.63;5091175;28;20395;-71
2020/12/07 05:46:06;;;;;;;26.27;13.43;;;;;;;1.81;100.00;99925.28;5090883;28;20036;-67
2020/12/07 05:48:33;;;;;;;20.38;13.63;;;;;;;1.80;100.00;99919.06;5090988;28;20040;-68
2020/12/07 05:51:06;;;;;;;23.02;13.55;;;;;;;1.81;100.00;99919.88;5090878;28;20060;-66
2020/12/07 05:53:37;;;;;;;23.30;13.02;;;;;;;1.83;100.00;99922.38;5090814;28;20028;-68
2020/12/07 05:56:04;;;;;;;26.92;14.38;;;;;;;1.83;100.00;99917.81;5090975;28;20035;-66
2020/12/07 05:58:40;;;;;;;25.02;15.07;;;;;;;1.85;100.00;99907.66;5090770;28;20060;-70
2020/12/07 06:01:09;;;;;;;24.48;14.50;;;;;;;1.84;100.00;99908.69;5090729;28;20039;-66
2020/12/07 06:03:35;;;;;;;26.90;14.48;;;;;;;1.81;100.00;99903.72;5090533;28;20066;-67
2020/12/07 06:06:00;;;;;;;24.17;14.18;;;;;;;1.80;100.00;99902.09;5090718;28;20073;-65
2020/12/07 06:08:34;;;;;;;26.50;14.30;;;;;;;1.80;100.00;99910.16;5090489;28;20046;-68
2020/12/07 06:11:11;;;;;;;19.88;12.15;;;;;;;1.81;100.00;99917.19;5090772;28;20122;-64
2020/12/07 06:13:38;;;;;;;19.00;11.05;;;;;;;1.86;100.00;99912.00;5090695;28;20023;-69
2020/12/07 06:16:05;;;;;;;19.75;10.77;;;;;;;1.92;100.00;99921.97;5090667;28;20036;-67
2020/12/07 06:18:40;;;;;;;23.25;12.20;;;;;;;1.99;100.00;99922.78;5090389;28;20089;-67
2020/12/07 06:21:10;;;;;;;28.50;14.23;;;;;;;2.05;100.00;99923.78;5090509;28;20042;-67
2020/12/07 06:23:40;;;;;;;26.83;14.05;;;;;;;2.05;100.00;99921.94;5090410;28;20035;-68
2020/12/07 06:26:07;;;;;;;24.23;13.27;;;;;;;2.05;100.00;99916.53;5090511;28;20028;-68
2020/12/07 06:28:34;;;;;;;24.63;12.70;;;;;;;2.04;100.00;99914.88;5090183;28;20390;-65
2020/12/07 06:31:20;;;;;;;23.40;12.90;;;;;;;2.03;100.00;99910.53;5090611;28;20375;-65
2020/12/07 06:33:49;;;;;;;18.88;11.27;;;;;;;2.04;100.00;99909.50;5091775;28;20044;-69
2020/12/07 06:36:23;;;;;;;22.00;12.80;;;;;;;2.07;100.00;99903.69;5094052;28;20032;-66
2020/12/07 06:38:49;;;;;;;24.38;13.50;;;;;;;2.11;100.00;99904.94;5094055;28;20202;-67
2020/12/07 06:41:30;;;;;;;27.45;14.15;;;;;;;2.13;100.00;99904.72;5094013;28;20138;-69
2020/12/07 06:43:57;;;;;;;25.00;16.60;;;;;;;2.17;100.00;99902.44;5093927;28;20039;-68
2020/12/07 06:47:03;;;;;;;32.38;16.98;;;;;;;2.17;100.00;99897.88;5094093;28;20528;-66
2020/12/07 06:49:41;;;;;;;25.15;15.38;;;;;;;2.18;100.00;99893.31;5094132;28;20111;-67
2020/12/07 06:52:14;;;;;;;28.25;16.30;;;;;;;2.20;100.00;99889.38;5093699;28;20047;-68
2020/12/07 06:55:06;;;;;;;26.17;15.23;;;;;;;2.21;100.00;99888.34;5093766;28;20033;-68
2020/12/07 06:57:37;;;;;;;28.27;13.73;;;;;;;2.24;100.00;99881.69;5084337;28;20051;-67
2020/12/07 07:00:22;;;;;;;23.25;13.30;;;;;;;2.29;100.00;99879.22;5093649;28;20122;-67
2020/12/07 07:02:51;;;;;;;20.95;12.60;;;;;;;2.34;100.00;99876.69;5075510;28;20128;-67
2020/12/07 07:05:24;;;;;;;22.17;11.43;;;;;;;2.40;100.00;99875.84;5093717;28;20032;-67
2020/12/07 07:07:50;;;;;;;19.42;10.70;;;;;;;2.46;100.00;99874.19;5093396;28;20028;-68
2020/12/07 07:10:16;;;;;;;19.95;11.00;;;;;;;2.51;100.00;99883.28;5092194;28;20048;-67
2020/12/07 07:12:43;;;;;;;17.25;10.73;;;;;;;2.56;100.00;99883.44;5093298;28;20044;-66
2020/12/07 07:15:10;;;;;;;22.77;11.18;;;;;;;2.58;100.00;99878.66;5093271;28;20406;-68
2020/12/07 07:17:40;;;;;;;16.85;10.77;;;;;;;2.59;100.00;99874.94;5093223;28;20074;-67
2020/12/07 07:20:11;;;;;;;21.30;11.52;;;;;;;2.61;100.00;99882.84;5093422;28;20043;-67
2020/12/07 07:22:41;;;;;;;22.65;10.40;;;;;;;2.61;100.00;99877.44;5093191;28;20085;-66
2020/12/07 07:30:26;;;;;;;21.95;12.02;;;;;;;2.59;100.00;99884.88;5092900;28;20410;-64
2020/12/07 07:32:54;;;;;;;21.60;12.32;;;;;;;2.57;100.00;99885.09;5092925;28;20038;-63
2020/12/07 07:35:22;;;;;;;20.55;12.07;;;;;;;2.55;100.00;99879.09;5093102;28;20403;-65
2020/12/07 07:37:48;;;;;;;17.88;12.25;;;;;;;2.57;100.00;99893.19;5092871;28;20032;-67
2020/12/07 07:40:16;;;;;;;21.67;12.85;;;;;;;2.59;100.00;99880.31;5092947;28;20036;-66
2020/12/07 07:42:54;;;;;;;21.77;12.90;;;;;;;2.62;100.00;99887.19;5092813;28;20036;-67
2020/12/07 07:45:23;;;;;;;18.30;11.30;;;;;;;2.63;100.00;99878.88;5092347;28;20040;-67
2020/12/07 08:17:53;;;;;;;20.10;11.60;;;;;;;2.71;100.00;99897.50;5092044;28;20346;-66
2020/12/07 08:20:20;;;;;;;16.80;10.18;;;;;;;2.72;100.00;99896.44;5092102;28;20060;-69
2020/12/07 08:23:00;;;;;;;15.27;10.63;;;;;;;2.76;100.00;99901.41;5092024;28;20465;-66
2020/12/07 08:25:40;;;;;;;18.85;10.55;;;;;;;2.81;100.00;99893.53;5092021;28;20055;-66
2020/12/07 08:28:32;;;;;;;16.92;10.98;;;;;;;2.86;100.00;99896.38;5091942;28;20040;-68
2020/12/07 08:31:16;;;;;;;15.88;10.55;;;;;;;2.91;100.00;99894.69;5091904;28;20024;-69
2020/12/07 08:33:54;;;;;;;16.35;11.10;;;;;;;2.95;100.00;99892.38;5091960;28;20064;-66
2020/12/07 08:36:20;;;;;;;16.90;10.93;;;;;;;2.98;100.00;99897.38;5091855;28;20145;-68
2020/12/07 08:38:46;;;;;;;17.17;10.85;;;;;;;3.02;100.00;99898.59;5092027;28;20482;-68
2020/12/07 08:41:18;;;;;;;20.63;11.55;;;;;;;3.09;100.00;99896.66;5090541;28;20505;-68
2020/12/07 08:43:53;;;;;;;18.33;12.60;;;;;;;3.20;100.00;99901.38;5091678;28;20035;-66
2020/12/07 08:46:23;;;;;;;22.17;13.43;;;;;;;3.33;100.00;99898.59;5091906;28;20508;-65
2020/12/07 08:48:49;;;;;;;27.42;13.60;;;;;;;3.46;100.00;99891.44;5091579;28;20039;-70
2020/12/07 08:51:19;;;;;;;20.58;13.35;;;;;;;3.59;100.00;99886.78;5091560;28;20074;-66
2020/12/07 08:53:45;;;;;;;25.45;14.95;;;;;;;3.71;100.00;99889.59;5091519;28;20081;-68
2020/12/07 08:56:12;;;;;;;26.17;14.10;;;;;;;3.81;100.00;99895.31;5090797;28;20039;-65
2020/12/07 08:58:38;;;;;;;27.98;14.80;;;;;;;3.91;100.00;99892.94;5091208;28;20136;-69
2020/12/07 09:01:05;;;;;;;23.08;14.15;;;;;;;3.99;100.00;99899.91;5091349;28;20106;-65
2020/12/07 09:03:32;;;;;;;25.10;14.40;;;;;;;4.08;100.00;99909.41;5091534;28;20469;-66
2020/12/07 09:06:01;;;;;;;25.45;14.73;;;;;;;4.14;100.00;99904.97;5091277;28;20140;-65
2020/12/07 09:08:26;;;;;;;23.58;14.18;;;;;;;4.20;100.00;99904.09;5091125;28;20039;-67
2020/12/07 09:10:52;;;;;;;25.13;14.50;;;;;;;4.25;100.00;99915.06;5091176;28;20398;-64
2020/12/07 09:13:17;;;;;;;21.58;13.43;;;;;;;4.31;100.00;99914.16;5091056;28;20036;-68
2020/12/07 09:15:43;;;;;;;23.67;14.15;;;;;;;4.39;100.00;99921.97;5091150;28;20130;-63
2020/12/07 09:18:09;;;;;;;24.55;14.07;;;;;;;4.45;100.00;99921.06;5090552;28;20051;-63
2020/12/07 09:20:34;;;;;;;27.08;14.73;;;;;;;4.50;100.00;99926.63;5090422;28;20527;-65
2020/12/07 09:23:00;;;;;;;27.50;14.10;;;;;;;4.54;100.00;99927.84;5089618;28;20040;-64
2020/12/07 09:25:26;;;;;;;23.90;14.68;;;;;;;4.57;100.00;99921.16;5089565;28;20036;-64
2020/12/07 09:27:51;;;;;;;28.52;15.40;;;;;;;4.60;100.00;99926.13;5090127;28;20390;-64
2020/12/07 09:30:17;;;;;;;26.90;14.15;;;;;;;4.65;100.00;99917.31;5106114;28;20226;-66
2020/12/07 09:32:43;;;;;;;30.27;15.18;;;;;;;4.70;100.00;99931.00;5090805;28;20055;-64
2020/12/07 09:35:08;;;;;;;25.15;15.20;;;;;;;4.72;100.00;99924.31;5091058;28;20024;-64
2020/12/07 09:37:37;;;;;;;24.33;14.30;;;;;;;4.76;100.00;99919.28;5090683;28;20436;-65
2020/12/07 09:40:06;;;;;;;23.77;14.65;;;;;;;4.79;100.00;99925.06;5090889;28;20078;-64
2020/12/07 09:42:32;;;;;;;26.70;14.73;;;;;;;4.85;100.00;99924.13;5091081;28;20044;-66
2020/12/07 09:44:58;;;;;;;25.17;15.07;;;;;;;4.89;100.00;99916.41;5090622;28;20075;-62
2020/12/07 09:47:25;;;;;;;25.40;15.18;;;;;;;4.94;100.00;99921.94;5090683;28;20040;-63
2020/12/07 09:49:51;;;;;;;26.90;15.43;;;;;;;4.99;100.00;99924.78;5090600;28;20040;-63
2020/12/07 09:52:16;;;;;;;26.25;15.13;;;;;;;5.03;100.00;99926.00;5089922;28;20036;-64
2020/12/07 09:54:42;;;;;;;25.83;15.55;;;;;;;5.06;100.00;99928.25;5090306;28;20028;-64
2020/12/07 09:57:07;;;;;;;34.78;16.30;;;;;;;5.11;100.00;99928.38;5090220;28;20040;-64
2020/12/07 09:59:35;;;;;;;25.77;14.93;;;;;;;5.17;100.00;99931.22;5090627;28;20044;-67
2020/12/07 10:02:01;;;;;;;25.27;14.25;;;;;;;5.19;100.00;99923.69;5090373;28;20040;-66
2020/12/07 10:04:27;;;;;;;25.60;15.52;;;;;;;5.23;100.00;99914.91;5090717;28;20124;-65
2020/12/07 10:06:53;;;;;;;28.63;15.25;;;;;;;5.27;100.00;99917.97;5090986;28;20125;-65
2020/12/07 10:09:19;;;;;;;26.20;15.13;;;;;;;5.31;100.00;99922.69;5094851;28;20040;-65
2020/12/07 10:11:45;;;;;;;22.98;13.43;;;;;;;5.33;100.00;99920.56;5094638;28;20040;-66
2020/12/07 10:14:10;;;;;;;27.52;15.45;;;;;;;5.38;100.00;99917.16;5094338;28;20032;-69
2020/12/07 10:16:36;;;;;;;32.90;15.43;;;;;;;5.40;100.00;99920.50;5094348;28;20097;-67
2020/12/07 10:19:02;;;;;;;21.30;13.70;;;;;;;5.44;100.00;99921.69;5094350;28;20036;-69
2020/12/07 10:21:28;;;;;;;23.48;14.10;;;;;;;5.49;100.00;99918.28;5094090;28;20062;-68
2020/12/07 10:23:53;;;;;;;27.20;14.70;;;;;;;5.53;100.00;99920.28;5094197;28;20044;-66
2020/12/07 10:26:25;;;;;;;22.17;13.45;;;;;;;5.57;100.00;99907.94;5094302;28;20447;-69
2020/12/07 10:28:52;;;;;;;21.33;12.98;;;;;;;5.61;100.00;99917.25;5093944;28;20105;-67
2020/12/07 10:31:21;;;;;;;25.52;13.55;;;;;;;5.78;100.00;99911.16;5093815;28;20373;-68
2020/12/07 10:33:48;;;;;;;21.27;13.32;;;;;;;5.89;100.00;99910.31;5093671;28;20036;-66
2020/12/07 10:36:14;;;;;;;21.98;12.35;;;;;;;5.97;100.00;99907.31;5093717;28;20401;-68
2020/12/07 10:38:40;;;;;;;22.15;12.60;;;;;;;6.13;100.00;99914.75;5093106;28;20044;-64
2020/12/07 10:41:05;;;;;;;22.10;13.82;;;;;;;6.26;100.00;99908.25;5094101;28;20032;-68
2020/12/07 10:43:31;;;;;;;24.83;14.75;;;;;;;6.40;100.00;99903.38;5093646;28;20105;-66
2020/12/07 10:45:57;;;;;;;23.30;13.55;;;;;;;6.51;100.00;99899.84;5094378;28;20121;-69
2020/12/07 10:48:23;;;;;;;21.75;12.23;;;;;;;6.62;100.00;99896.31;5093825;28;20125;-65
2020/12/07 10:50:48;;;;;;;19.02;12.45;;;;;;;6.72;100.00;99896.50;5092840;28;20538;-62
2020/12/07 10:53:14;;;;;;;18.50;11.00;;;;;;;6.82;100.00;99891.28;5092761;28;20078;-63
2020/12/07 10:55:41;;;;;;;13.52;9.35;;;;;;;6.83;100.00;99882.06;5093509;28;20044;-63
2020/12/07 10:58:06;;;;;;;13.07;9.85;;;;;;;6.93;100.00;99878.72;5093606;28;20428;-62
2020/12/07 11:00:32;;;;;;;11.80;8.18;;;;;;;7.01;100.00;99882.97;5093095;28;20097;-62
2020/12/07 11:02:58;;;;;;;10.15;7.63;;;;;;;7.08;100.00;99878.19;5092888;28;20039;-61
2020/12/07 11:05:23;;;;;;;11.40;8.50;;;;;;;7.16;100.00;99880.53;5091980;28;20061;-62
2020/12/07 11:07:52;;;;;;;11.38;7.93;;;;;;;7.23;100.00;99875.75;5093309;28;20032;-62
2020/12/07 11:10:18;;;;;;;10.75;7.78;;;;;;;7.27;100.00;99871.47;5093361;28;20090;-62
2020/12/07 11:12:46;;;;;;;9.85;7.57;;;;;;;7.37;100.00;99879.00;5093166;28;20047;-62
2020/12/07 11:15:12;;;;;;;10.07;6.72;;;;;;;7.42;100.00;99871.75;5092671;28;20040;-62
2020/12/07 11:17:37;;;;;;;12.00;7.10;;;;;;;7.45;100.00;99873.97;5092069;28;20094;-63
2020/12/07 11:20:03;;;;;;;9.00;6.50;;;;;;;7.49;100.00;99872.44;5091833;28;20044;-63
2020/12/07 11:22:28;;;;;;;7.50;5.35;;;;;;;7.52;100.00;99869.22;5092679;28;20027;-63
2020/12/07 11:24:54;;;;;;;8.30;5.65;;;;;;;7.59;100.00;99868.22;5092882;28;20035;-62
2020/12/07 11:27:20;;;;;;;6.15;5.18;;;;;;;7.69;100.00;99860.25;5092533;28;20091;-63
2020/12/07 11:29:45;;;;;;;10.05;5.75;;;;;;;7.73;100.00;99864.13;5092593;28;20154;-62
2020/12/07 11:32:11;;;;;;;122.95;19.88;;;;;;;7.81;100.00;99861.00;5092903;28;20042;-64
2020/12/07 11:34:37;;;;;;;12.77;5.35;;;;;;;7.87;100.00;99854.56;5092846;28;20090;-63
2020/12/07 11:37:02;;;;;;;5.85;4.85;;;;;;;7.91;100.00;99852.16;5092707;28;20047;-62
2020/12/07 11:42:14;;;;;;;5.57;3.90;;;;;;;8.04;100.00;99855.38;5092649;28;20043;-62
2020/12/07 11:44:39;;;;;;;5.25;4.15;;;;;;;8.10;100.00;99842.66;5092527;28;20032;-62
2020/12/07 11:47:07;;;;;;;5.35;4.10;;;;;;;8.15;100.00;99857.16;5092408;28;20060;-62
2020/12/07 11:49:33;;;;;;;15.43;5.15;;;;;;;8.21;100.00;99849.06;5092575;28;20600;-62
2020/12/07 11:52:03;;;;;;;18.35;5.47;;;;;;;8.28;100.00;99855.16;5092618;28;20040;-63
2020/12/07 11:54:29;;;;;;;86.78;16.35;;;;;;;8.33;100.00;99847.03;5092262;28;20039;-62